createdAt,value
2018-02-21T00:01:49.153Z,1.53
2018-02-21T00:04:17.629Z,1.55
2018-02-21T00:06:46.073Z,1.49
2018-02-21T00:09:14.575Z,1.69
2018-02-21T00:11:43.202Z,1.78
2018-02-21T00:14:12.247Z,1.58
2018-02-21T00:16:40.798Z,1.64
2018-02-21T00:19:09.380Z,1.60
2018-02-21T00:21:37.986Z,1.59
2018-02-21T00:24:06.610Z,1.48
2018-02-21T00:26:35.170Z,1.53
2018-02-21T00:29:03.735Z,1.45
2018-02-21T00:31:32.803Z,1.50
2018-02-21T00:34:01.304Z,1.63
2018-02-21T00:36:29.788Z,1.62
2018-02-21T00:38:58.404Z,1.54
2018-02-21T00:41:26.852Z,1.47
2018-02-21T00:43:55.327Z,1.31
2018-02-21T00:46:24.505Z,1.28
2018-02-21T00:48:53.016Z,1.40
2018-02-21T00:51:21.449Z,1.52
2018-02-21T00:53:50.046Z,1.62
2018-02-21T00:56:18.508Z,1.58
2018-02-21T00:58:46.945Z,1.54
2018-02-21T01:01:16.113Z,1.51
2018-02-21T01:03:44.641Z,1.51
2018-02-21T01:06:13.602Z,1.55
2018-02-21T01:08:42.873Z,1.49
2018-02-21T01:11:11.313Z,1.56
2018-02-21T01:13:39.779Z,1.55
2018-02-21T01:16:08.433Z,1.58
2018-02-21T01:18:36.965Z,1.67
2018-02-21T01:21:05.893Z,1.64
2018-02-21T01:23:34.763Z,1.71
2018-02-21T01:26:03.346Z,1.58
2018-02-21T01:28:31.799Z,1.58
2018-02-21T01:31:00.445Z,1.51
2018-02-21T01:33:29.008Z,1.52
2018-02-21T01:35:58.499Z,1.31
2018-02-21T01:38:27.135Z,1.30
2018-02-21T01:40:55.687Z,1.38
2018-02-21T01:43:24.148Z,1.26
2018-02-21T01:45:52.656Z,1.24
2018-02-21T01:48:21.338Z,1.17
2018-02-21T01:50:52.820Z,1.01
2018-02-21T01:53:21.906Z,0.98
2018-02-21T01:55:50.421Z,1.04
2018-02-21T01:58:18.997Z,0.84
2018-02-21T02:00:47.626Z,0.79
2018-02-21T02:03:16.124Z,0.71
2018-02-21T02:05:44.612Z,0.55
2018-02-21T02:08:13.143Z,0.51
2018-02-21T02:10:41.678Z,0.58
2018-02-21T02:13:10.138Z,0.59
2018-02-21T02:15:39.136Z,0.70
2018-02-21T02:18:07.719Z,0.81
2018-02-21T02:20:36.215Z,1.05
2018-02-21T02:23:04.888Z,0.99
2018-02-21T02:25:33.464Z,1.05
2018-02-21T02:28:01.952Z,1.14
2018-02-21T02:30:30.805Z,1.14
2018-02-21T02:32:59.310Z,1.17
2018-02-21T02:35:27.858Z,1.42
2018-02-21T02:37:56.370Z,1.56
2018-02-21T02:40:24.823Z,1.60
2018-02-21T02:42:53.371Z,1.56
2018-02-21T02:45:21.876Z,1.59
2018-02-21T02:47:50.350Z,1.64
2018-02-21T02:50:18.791Z,1.77
2018-02-21T02:52:48.425Z,1.78
2018-02-21T02:55:16.919Z,1.90
2018-02-21T02:57:45.696Z,1.76
2018-02-21T03:00:15.011Z,1.52
2018-02-21T03:02:43.496Z,1.61
2018-02-21T03:05:11.971Z,1.79
2018-02-21T03:07:40.699Z,1.90
2018-02-21T03:10:09.168Z,1.96
2018-02-21T03:12:37.881Z,1.93
2018-02-21T03:15:07.516Z,1.94
2018-02-21T03:17:35.992Z,1.77
2018-02-21T03:20:04.665Z,1.53
2018-02-21T03:22:34.154Z,1.70
2018-02-21T03:25:02.636Z,1.77
2018-02-21T03:27:31.161Z,1.81
2018-02-21T03:30:02.106Z,1.90
2018-02-21T03:32:30.557Z,2.00
2018-02-21T03:34:59.050Z,2.05
2018-02-21T03:37:27.575Z,2.11
2018-02-21T03:39:56.114Z,2.13
2018-02-21T03:42:24.621Z,2.06
2018-02-21T03:44:53.153Z,1.92
2018-02-21T03:47:21.601Z,1.76
2018-02-21T03:49:50.123Z,1.75
2018-02-21T03:52:20.200Z,1.86
2018-02-21T03:54:48.781Z,1.98
2018-02-21T03:57:17.277Z,2.00
2018-02-21T03:59:45.747Z,2.00
2018-02-21T04:02:14.199Z,2.01
2018-02-21T04:04:42.625Z,2.03
2018-02-21T04:07:11.625Z,1.99
2018-02-21T04:09:40.174Z,2.01
2018-02-21T04:12:08.702Z,1.87
2018-02-21T04:14:39.443Z,1.82
2018-02-21T04:17:07.970Z,1.72
2018-02-21T04:19:36.556Z,1.79
2018-02-21T04:22:06.083Z,1.79
2018-02-21T04:24:34.754Z,1.65
2018-02-21T04:27:03.224Z,1.70
2018-02-21T04:29:32.261Z,1.76
2018-02-21T04:32:00.720Z,1.80
2018-02-21T04:34:29.151Z,1.83
2018-02-21T04:36:58.531Z,1.80
2018-02-21T04:39:27.056Z,1.79
2018-02-21T04:41:55.968Z,1.75
2018-02-21T04:44:24.900Z,1.73
2018-02-21T04:46:53.380Z,1.75
2018-02-21T04:49:21.863Z,1.79
2018-02-21T04:51:51.178Z,1.77
2018-02-21T04:57:35.689Z,1.72
2018-02-21T05:00:20.029Z,1.63
2018-02-21T05:02:49.469Z,1.40
2018-02-21T05:05:17.937Z,1.26
2018-02-21T05:07:46.433Z,1.18
2018-02-21T05:10:15.488Z,1.22
2018-02-21T05:12:44.045Z,1.24
2018-02-21T05:15:12.504Z,1.30
2018-02-21T05:17:41.292Z,1.31
2018-02-21T05:20:09.808Z,1.32
2018-02-21T05:22:38.313Z,1.37
2018-02-21T05:25:07.024Z,1.43
2018-02-21T05:27:35.556Z,1.44
2018-02-21T05:30:04.216Z,1.38
2018-02-21T05:32:32.746Z,1.14
2018-02-21T05:35:01.187Z,1.13
2018-02-21T05:37:29.685Z,1.15
2018-02-21T05:39:58.259Z,1.09
2018-02-21T05:42:26.708Z,1.13
2018-02-21T05:44:55.173Z,1.20
2018-02-21T05:47:23.881Z,1.26
2018-02-21T05:49:52.321Z,1.29
2018-02-21T05:52:20.842Z,1.33
2018-02-21T05:54:49.390Z,1.34
2018-02-21T05:57:17.850Z,1.27
2018-02-21T05:59:46.288Z,1.10
2018-02-21T06:02:15.148Z,0.94
2018-02-21T06:04:43.655Z,0.80
2018-02-21T06:07:12.296Z,0.79
2018-02-21T06:09:40.908Z,0.76
2018-02-21T06:12:09.617Z,0.51
2018-02-21T06:14:38.075Z,0.45
2018-02-21T06:17:08.047Z,0.42
2018-02-21T06:19:37.299Z,0.45
2018-02-21T06:22:05.910Z,0.35
2018-02-21T06:24:35.182Z,0.20
2018-02-21T06:27:05.359Z,0.14
2018-02-21T06:29:34.027Z,0.09
2018-02-21T06:32:04.352Z,0.07
2018-02-21T06:34:34.042Z,0.11
2018-02-21T06:37:02.834Z,0.08
2018-02-21T06:39:33.994Z,0.06
2018-02-21T06:42:06.778Z,0.13
2018-02-21T06:44:36.438Z,0.40
2018-02-21T06:47:05.278Z,0.54
2018-02-21T06:49:33.927Z,0.61
2018-02-21T06:52:03.354Z,0.70
2018-02-21T06:54:32.008Z,0.78
2018-02-21T06:57:01.815Z,0.67
2018-02-21T06:59:30.642Z,0.64
2018-02-21T07:01:59.677Z,0.76
2018-02-21T07:04:28.625Z,0.82
2018-02-21T07:06:57.310Z,0.78
2018-02-21T07:09:25.968Z,0.76
2018-02-21T07:11:59.860Z,0.86
2018-02-21T07:14:29.204Z,1.04
2018-02-21T07:16:57.666Z,1.18
2018-02-21T07:19:26.261Z,1.22
2018-02-21T07:21:54.934Z,1.20
2018-02-21T07:24:23.441Z,1.04
2018-02-21T07:26:51.898Z,0.94
2018-02-21T07:29:20.417Z,0.91
2018-02-21T07:31:48.933Z,0.98
2018-02-21T07:34:17.378Z,0.97
2018-02-21T07:36:45.958Z,0.97
2018-02-21T07:39:14.410Z,1.02
2018-02-21T07:41:42.875Z,1.05
2018-02-21T07:44:11.483Z,1.05
2018-02-21T07:46:40.095Z,1.20
2018-02-21T07:49:08.675Z,1.13
2018-02-21T07:51:37.796Z,1.21
2018-02-21T07:54:06.307Z,1.37
2018-02-21T07:56:34.861Z,1.61
2018-02-21T07:59:04.284Z,1.88
2018-02-21T08:01:32.945Z,2.17
2018-02-21T08:04:01.526Z,2.52
2018-02-21T08:06:30.816Z,2.86
2018-02-21T08:08:59.289Z,3.13
2018-02-21T08:11:27.767Z,3.43
2018-02-21T08:13:56.294Z,3.57
2018-02-21T08:16:24.850Z,3.87
2018-02-21T08:18:53.368Z,4.19
2018-02-21T08:21:22.827Z,4.35
2018-02-21T08:23:51.311Z,4.70
2018-02-21T08:26:19.827Z,4.98
2018-02-21T08:28:48.356Z,4.60
2018-02-21T08:31:16.890Z,4.64
2018-02-21T08:33:45.341Z,4.25
2018-02-21T08:36:14.474Z,3.77
2018-02-21T08:38:43.036Z,3.68
2018-02-21T08:41:11.529Z,3.70
2018-02-21T08:43:40.305Z,3.77
2018-02-21T08:46:08.769Z,3.96
2018-02-21T08:48:37.246Z,3.86
2018-02-21T08:51:06.666Z,3.74
2018-02-21T08:53:35.452Z,3.85
2018-02-21T08:56:03.985Z,3.65
2018-02-21T08:58:35.184Z,3.62
2018-02-21T09:01:03.706Z,3.43
2018-02-21T09:03:32.157Z,3.33
2018-02-21T09:06:01.539Z,3.46
2018-02-21T09:08:30.021Z,3.70
2018-02-21T09:10:58.538Z,4.02
2018-02-21T09:13:27.100Z,3.89
2018-02-21T09:15:55.570Z,3.89
2018-02-21T09:18:24.078Z,3.97
2018-02-21T09:20:53.276Z,4.22
2018-02-21T09:23:21.886Z,4.60
2018-02-21T09:25:50.342Z,4.90
2018-02-21T09:28:18.861Z,5.07
2018-02-21T09:30:47.323Z,4.96
2018-02-21T09:33:15.785Z,4.28
2018-02-21T09:35:44.362Z,4.52
2018-02-21T09:38:12.914Z,4.07
2018-02-21T09:40:41.472Z,3.84
2018-02-21T09:43:10.178Z,3.98
2018-02-21T09:45:39.607Z,3.90
2018-02-21T09:48:08.334Z,3.75
2018-02-21T09:50:36.846Z,3.85
2018-02-21T09:53:05.470Z,4.05
2018-02-21T09:55:34.156Z,4.07
2018-02-21T09:58:03.151Z,4.14
2018-02-21T10:00:31.751Z,4.04
2018-02-21T10:03:00.245Z,4.19
2018-02-21T10:05:28.773Z,4.32
2018-02-21T10:07:57.216Z,4.11
2018-02-21T10:10:25.900Z,3.98
2018-02-21T10:12:54.400Z,3.84
2018-02-21T10:15:23.547Z,3.86
2018-02-21T10:17:52.723Z,3.83
2018-02-21T10:20:21.515Z,3.92
2018-02-21T10:22:49.964Z,3.91
2018-02-21T10:25:18.407Z,3.88
2018-02-21T10:27:46.953Z,3.96
2018-02-21T10:30:15.408Z,3.99
2018-02-21T10:32:43.897Z,4.09
2018-02-21T10:35:12.986Z,4.07
2018-02-21T10:37:41.578Z,4.11
2018-02-21T10:40:10.243Z,4.32
2018-02-21T10:42:39.156Z,4.04
2018-02-21T10:45:09.640Z,4.31
2018-02-21T10:47:38.321Z,4.46
2018-02-21T10:50:06.998Z,4.41
2018-02-21T10:52:35.480Z,4.51
2018-02-21T10:55:04.071Z,4.41
2018-02-21T10:57:32.919Z,4.54
2018-02-21T11:00:01.495Z,4.59
2018-02-21T11:02:29.946Z,4.60
2018-02-21T11:04:58.786Z,5.01
2018-02-21T11:07:27.241Z,5.92
2018-02-21T11:09:55.728Z,6.78
2018-02-21T11:12:24.279Z,7.59
2018-02-21T11:14:52.757Z,8.46
2018-02-21T11:17:22.336Z,10.05
2018-02-21T11:19:51.607Z,11.04
2018-02-21T11:22:20.093Z,10.60
2018-02-21T11:24:49.167Z,9.29
2018-02-21T11:27:17.997Z,10.51
2018-02-21T11:29:46.476Z,11.92
2018-02-21T11:32:14.934Z,9.39
2018-02-21T11:34:43.662Z,7.88
2018-02-21T11:37:12.266Z,7.77
2018-02-21T11:39:40.894Z,7.02
2018-02-21T11:42:10.106Z,5.65
2018-02-21T11:44:38.824Z,4.91
2018-02-21T11:47:07.450Z,5.10
2018-02-21T11:49:36.297Z,4.80
2018-02-21T11:52:04.895Z,4.52
2018-02-21T11:54:33.410Z,4.61
2018-02-21T11:57:02.470Z,4.66
2018-02-21T11:59:30.975Z,4.37
2018-02-21T12:01:59.448Z,4.44
2018-02-21T12:04:28.003Z,3.92
2018-02-21T12:06:56.492Z,4.08
2018-02-21T12:09:24.944Z,4.16
2018-02-21T12:11:53.866Z,4.15
2018-02-21T12:14:22.322Z,4.15
2018-02-21T12:16:50.821Z,3.89
2018-02-21T12:19:19.325Z,3.96
2018-02-21T12:21:47.788Z,4.07
2018-02-21T12:24:16.236Z,4.16
2018-02-21T12:26:44.947Z,4.05
2018-02-21T12:29:13.502Z,3.54
2018-02-21T12:31:42.554Z,3.58
2018-02-21T12:34:11.282Z,3.71
2018-02-21T12:36:40.075Z,3.69
2018-02-21T12:39:14.227Z,3.68
2018-02-21T12:41:43.595Z,3.59
2018-02-21T12:44:12.111Z,3.10
2018-02-21T12:46:40.766Z,3.07
2018-02-21T12:49:09.512Z,3.01
2018-02-21T12:51:38.117Z,3.09
2018-02-21T12:54:06.820Z,3.17
2018-02-21T12:56:35.470Z,2.98
2018-02-21T12:59:04.399Z,2.93
2018-02-21T13:01:33.304Z,2.84
2018-02-21T13:04:01.788Z,2.83
2018-02-21T13:06:30.394Z,2.95
2018-02-21T13:08:59.795Z,3.16
2018-02-21T13:11:28.374Z,3.32
2018-02-21T13:13:56.979Z,3.12
2018-02-21T13:16:26.047Z,2.99
2018-02-21T13:18:54.608Z,2.91
2018-02-21T13:21:23.081Z,3.10
2018-02-21T13:23:52.099Z,3.15
2018-02-21T13:26:20.588Z,3.10
2018-02-21T13:28:49.083Z,3.20
2018-02-21T13:31:17.595Z,3.53
2018-02-21T13:33:46.121Z,3.72
2018-02-21T13:36:14.576Z,3.74
2018-02-21T13:38:43.521Z,3.83
2018-02-21T13:41:12.391Z,4.01
2018-02-21T13:43:40.973Z,3.99
2018-02-21T13:46:09.799Z,3.87
2018-02-21T13:48:38.314Z,3.75
2018-02-21T13:51:06.929Z,3.82
2018-02-21T13:53:35.789Z,3.78
2018-02-21T13:56:04.341Z,3.65
2018-02-21T13:58:32.854Z,3.76
2018-02-21T14:01:01.458Z,3.80
2018-02-21T14:03:30.748Z,3.69
2018-02-21T14:05:59.274Z,3.84
2018-02-21T14:08:27.875Z,3.93
2018-02-21T14:10:56.389Z,3.72
2018-02-21T14:13:24.891Z,3.48
2018-02-21T14:15:54.145Z,3.55
2018-02-21T14:18:22.688Z,3.64
2018-02-21T14:20:51.169Z,3.66
2018-02-21T14:23:19.753Z,3.59
2018-02-21T14:25:48.247Z,3.70
2018-02-21T14:28:16.712Z,3.64
2018-02-21T14:30:45.280Z,3.63
2018-02-21T14:33:13.934Z,3.70
2018-02-21T14:35:42.520Z,3.56
2018-02-21T14:38:11.142Z,3.36
2018-02-21T14:40:39.616Z,3.44
2018-02-21T14:43:08.230Z,3.43
2018-02-21T14:45:36.817Z,3.67
2018-02-21T14:48:05.458Z,3.85
2018-02-21T14:50:34.008Z,3.50
2018-02-21T14:53:02.795Z,3.75
2018-02-21T14:55:31.283Z,3.90
2018-02-21T14:57:59.880Z,3.78
2018-02-21T15:00:28.791Z,3.82
2018-02-21T15:02:57.391Z,3.74
2018-02-21T15:05:25.857Z,3.71
2018-02-21T15:07:55.321Z,3.50
2018-02-21T15:10:23.934Z,3.51
2018-02-21T15:12:52.457Z,3.55
2018-02-21T15:15:21.869Z,3.78
2018-02-21T15:17:50.598Z,3.66
2018-02-21T15:20:19.133Z,3.77
2018-02-21T15:22:48.536Z,3.65
2018-02-21T15:25:17.007Z,3.56
2018-02-21T15:27:45.479Z,3.76
2018-02-21T15:30:15.201Z,3.70
2018-02-21T15:32:43.833Z,3.76
2018-02-21T15:35:12.723Z,3.55
2018-02-21T15:37:42.162Z,3.52
2018-02-21T15:40:10.757Z,3.31
2018-02-21T15:42:39.607Z,3.24
2018-02-21T15:45:08.172Z,3.17
2018-02-21T15:47:36.718Z,3.30
2018-02-21T15:50:05.414Z,3.42
2018-02-21T15:52:35.084Z,3.40
2018-02-21T15:55:03.809Z,3.35
2018-02-21T15:57:32.266Z,3.33
2018-02-21T16:00:01.631Z,3.29
2018-02-21T16:02:30.122Z,3.24
2018-02-21T16:04:58.635Z,3.04
2018-02-21T16:07:27.158Z,2.94
2018-02-21T16:09:55.646Z,2.91
2018-02-21T16:12:24.889Z,2.78
2018-02-21T16:14:53.824Z,2.66
2018-02-21T16:17:22.249Z,2.61
2018-02-21T16:19:50.712Z,2.61
2018-02-21T16:22:20.022Z,2.59
2018-02-21T16:24:48.526Z,2.56
2018-02-21T16:27:17.144Z,2.63
2018-02-21T16:29:46.412Z,2.67
2018-02-21T16:32:15.141Z,2.72
2018-02-21T16:34:43.795Z,2.72
2018-02-21T16:37:12.593Z,2.66
2018-02-21T16:39:41.267Z,2.65
2018-02-21T16:42:10.131Z,2.57
2018-02-21T16:44:39.159Z,2.46
2018-02-21T16:47:08.070Z,2.44
2018-02-21T16:49:37.858Z,2.41
2018-02-21T16:52:07.746Z,2.40
2018-02-21T16:54:36.845Z,2.37
2018-02-21T16:57:05.729Z,2.39
2018-02-21T16:59:35.289Z,2.38
2018-02-21T17:02:04.030Z,2.33
2018-02-21T17:04:32.586Z,2.34
2018-02-21T17:07:01.165Z,2.27
2018-02-21T17:09:29.779Z,2.24
2018-02-21T17:11:58.333Z,2.20
2018-02-21T17:14:27.460Z,2.11
2018-02-21T17:16:56.013Z,2.08
2018-02-21T17:19:25.270Z,1.92
2018-02-21T17:21:54.386Z,1.85
2018-02-21T17:24:22.848Z,1.84
2018-02-21T17:26:51.431Z,1.80
2018-02-21T17:29:20.628Z,1.78
2018-02-21T17:31:49.164Z,1.73
2018-02-21T17:34:18.634Z,1.76
2018-02-21T17:36:54.761Z,1.77
2018-02-21T17:39:23.293Z,1.76
2018-02-21T17:41:51.790Z,1.82
2018-02-21T17:44:20.968Z,1.88
2018-02-21T17:46:49.481Z,1.91
2018-02-21T17:49:17.934Z,1.93
2018-02-21T17:51:46.574Z,1.91
2018-02-21T17:54:15.307Z,2.01
2018-02-21T17:56:43.940Z,2.08
2018-02-21T17:59:13.287Z,2.09
2018-02-21T18:01:42.862Z,2.24
2018-02-21T18:04:11.958Z,2.33
2018-02-21T18:06:40.957Z,2.26
2018-02-21T18:09:09.648Z,2.35
2018-02-21T18:11:38.894Z,2.40
2018-02-21T18:14:08.231Z,2.55
2018-02-21T18:16:37.097Z,2.55
2018-02-21T18:19:06.319Z,2.49
2018-02-21T18:21:41.001Z,2.38
2018-02-21T18:24:10.891Z,2.08
2018-02-21T18:26:39.618Z,1.97
2018-02-21T18:29:09.491Z,1.80
2018-02-21T18:31:38.812Z,1.63
2018-02-21T18:34:08.652Z,1.59
2018-02-21T18:36:37.636Z,1.50
2018-02-21T18:39:06.825Z,1.42
2018-02-21T18:41:35.768Z,1.37
2018-02-21T18:44:04.460Z,1.34
2018-02-21T18:46:33.184Z,1.32
2018-02-21T18:49:01.661Z,1.34
2018-02-21T18:51:30.210Z,1.36
2018-02-21T18:53:58.889Z,1.43
2018-02-21T18:56:27.527Z,1.31
2018-02-21T18:58:56.133Z,1.30
2018-02-21T19:01:24.635Z,1.29
2018-02-21T19:03:54.622Z,1.20
2018-02-21T19:06:23.195Z,1.16
2018-02-21T19:08:51.720Z,1.10
2018-02-21T19:11:20.532Z,1.06
2018-02-21T19:13:50.327Z,1.12
2018-02-21T19:16:19.181Z,1.15
2018-02-21T19:18:47.897Z,1.28
2018-02-21T19:21:18.695Z,1.45
2018-02-21T19:23:47.831Z,1.57
2018-02-21T19:26:17.392Z,1.58
2018-02-21T19:28:46.243Z,1.48
2018-02-21T19:31:20.574Z,1.48
2018-02-21T19:33:49.467Z,1.46
2018-02-21T19:36:18.148Z,1.47
2018-02-21T19:38:46.817Z,1.51
2018-02-21T19:41:15.561Z,1.53
2018-02-21T19:43:44.131Z,1.53
2018-02-21T19:46:12.826Z,1.60
2018-02-21T19:48:41.695Z,1.46
2018-02-21T19:51:10.306Z,1.43
2018-02-21T19:53:39.270Z,1.40
2018-02-21T19:56:09.401Z,1.40
2018-02-21T19:58:44.716Z,1.27
2018-02-21T20:01:14.227Z,1.44
2018-02-21T20:03:44.074Z,1.56
2018-02-21T20:06:13.134Z,1.63
2018-02-21T20:08:44.040Z,1.61
2018-02-21T20:11:18.209Z,1.55
2018-02-21T20:13:48.091Z,1.54
2018-02-21T20:16:16.627Z,1.52
2018-02-21T20:18:45.210Z,1.52
2018-02-21T20:21:15.849Z,1.52
2018-02-21T20:23:45.214Z,1.46
2018-02-21T20:26:15.365Z,1.56
2018-02-21T20:28:44.842Z,1.54
2018-02-21T20:31:14.688Z,1.44
2018-02-21T20:33:44.152Z,1.55
2018-02-21T20:36:15.432Z,1.48
2018-02-21T20:38:54.228Z,1.47
2018-02-21T20:41:28.530Z,1.33
2018-02-21T20:43:58.378Z,1.35
2018-02-21T20:46:35.983Z,1.38
2018-02-21T20:49:07.469Z,1.33
2018-02-21T20:51:36.155Z,1.39
2018-02-21T20:54:04.942Z,1.50
2018-02-21T20:56:33.469Z,1.67
2018-02-21T20:59:02.060Z,1.74
2018-02-21T21:01:30.582Z,1.76
2018-02-21T21:03:59.038Z,1.77
2018-02-21T21:06:28.553Z,1.76
2018-02-21T21:08:57.055Z,1.75
2018-02-21T21:11:25.556Z,1.75
2018-02-21T21:13:54.373Z,1.77
2018-02-21T21:16:22.933Z,1.83
2018-02-21T21:18:51.969Z,1.88
2018-02-21T21:21:21.560Z,1.90
2018-02-21T21:23:49.808Z,1.87
2018-02-21T21:26:18.497Z,1.84
2018-02-21T21:28:48.499Z,1.86
2018-02-21T21:31:17.392Z,1.88
2018-02-21T21:33:46.720Z,1.85
2018-02-21T21:36:16.514Z,1.53
2018-02-21T21:38:45.446Z,1.35
2018-02-21T21:41:14.132Z,1.31
2018-02-21T21:43:43.497Z,1.53
2018-02-21T21:46:12.818Z,1.67
2018-02-21T21:48:41.557Z,1.76
2018-02-21T21:51:10.683Z,1.80
2018-02-21T21:53:39.681Z,1.79
2018-02-21T21:56:08.666Z,1.74
2018-02-21T21:58:37.266Z,1.76
2018-02-21T22:01:05.983Z,1.74
2018-02-21T22:03:34.873Z,1.78
2018-02-21T22:06:06.229Z,1.82
2018-02-21T22:08:35.893Z,1.83
2018-02-21T22:11:04.987Z,1.86
2018-02-21T22:13:34.513Z,1.88
2018-02-21T22:16:03.202Z,1.90
2018-02-21T22:18:32.246Z,1.90
2018-02-21T22:21:00.886Z,1.91
2018-02-21T22:23:29.537Z,1.90
2018-02-21T22:25:58.053Z,1.92
2018-02-21T22:28:26.813Z,1.90
2018-02-21T22:30:55.293Z,1.87
2018-02-21T22:33:23.811Z,1.69
2018-02-21T22:35:52.860Z,1.72
2018-02-21T22:38:21.360Z,1.69
2018-02-21T22:40:49.929Z,1.65
2018-02-21T22:43:18.448Z,1.53
2018-02-21T22:45:47.010Z,1.42
2018-02-21T22:48:15.775Z,1.51
2018-02-21T22:50:44.445Z,1.45
2018-02-21T22:53:13.071Z,1.38
2018-02-21T22:55:41.862Z,1.24
2018-02-21T22:58:10.723Z,1.29
2018-02-21T23:00:40.637Z,1.54
2018-02-21T23:03:09.267Z,1.57
2018-02-21T23:05:39.033Z,1.64
2018-02-21T23:08:07.609Z,1.64
2018-02-21T23:10:36.333Z,1.69
2018-02-21T23:13:06.218Z,1.72
2018-02-21T23:15:34.828Z,1.69
2018-02-21T23:18:03.820Z,1.78
2018-02-21T23:20:33.530Z,1.76
2018-02-21T23:23:02.228Z,1.86
2018-02-21T23:25:30.718Z,1.76
2018-02-21T23:28:01.023Z,1.64
2018-02-21T23:30:29.660Z,1.45
2018-02-21T23:32:58.592Z,1.45
2018-02-21T23:35:27.169Z,1.56
2018-02-21T23:37:55.709Z,1.80
2018-02-21T23:40:24.231Z,1.94
2018-02-21T23:42:52.781Z,1.93
2018-02-21T23:45:21.262Z,1.91
2018-02-21T23:47:49.843Z,2.04
2018-02-21T23:50:19.353Z,1.86
2018-02-21T23:52:47.841Z,1.98
2018-02-21T23:55:16.329Z,2.03
2018-02-21T23:57:45.381Z,2.11
